sensor_id;sensor_type;location;lat;lon;timestamp;pressure;altitude;pressure_sealevel;temperature;humidity
62655;BME280;48717;55.556;37.816;2024-01-27T00:01:00;99264.88;;;-5.39;98.54
62655;BME280;48717;55.556;37.816;2024-01-27T00:03:28;99263.13;;;-5.40;97.89
62655;BME280;48717;55.556;37.816;2024-01-27T00:05:55;99256.78;;;-5.47;97.61
62655;BME280;48717;55.556;37.816;2024-01-27T00:08:23;99256.63;;;-5.50;97.66
62655;BME280;48717;55.556;37.816;2024-01-27T00:10:51;99254.28;;;-5.45;98.09
62655;BME280;48717;55.556;37.816;2024-01-27T00:13:19;99257.50;;;-5.50;98.19
62655;BME280;48717;55.556;37.816;2024-01-27T00:15:46;99253.25;;;-5.49;98.69
62655;BME280;48717;55.556;37.816;2024-01-27T00:18:15;99233.56;;;-5.48;97.61
62655;BME280;48717;55.556;37.816;2024-01-27T00:20:43;99239.19;;;-5.56;98.52
62655;BME280;48717;55.556;37.816;2024-01-27T00:23:10;99239.41;;;-5.68;97.61
62655;BME280;48717;55.556;37.816;2024-01-27T00:25:38;99231.72;;;-5.68;98.20
62655;BME280;48717;55.556;37.816;2024-01-27T00:28:05;99244.97;;;-5.60;97.84
62655;BME280;48717;55.556;37.816;2024-01-27T00:30:32;99267.59;;;-5.53;98.34
62655;BME280;48717;55.556;37.816;2024-01-27T00:33:00;99250.63;;;-5.66;98.72
62655;BME280;48717;55.556;37.816;2024-01-27T00:35:28;99267.91;;;-5.63;97.52
62655;BME280;48717;55.556;37.816;2024-01-27T00:37:55;99267.81;;;-5.65;97.94
62655;BME280;48717;55.556;37.816;2024-01-27T00:40:23;99273.84;;;-5.64;98.48
62655;BME280;48717;55.556;37.816;2024-01-27T00:42:51;99267.41;;;-5.72;99.06
62655;BME280;48717;55.556;37.816;2024-01-27T00:45:19;99271.09;;;-5.67;98.04
62655;BME280;48717;55.556;37.816;2024-01-27T00:47:46;99261.63;;;-5.68;98.08
62655;BME280;48717;55.556;37.816;2024-01-27T00:50:13;99264.84;;;-5.72;98.82
62655;BME280;48717;55.556;37.816;2024-01-27T00:52:41;99239.91;;;-5.90;98.89
62655;BME280;48717;55.556;37.816;2024-01-27T00:55:08;99256.72;;;-5.80;98.81
62655;BME280;48717;55.556;37.816;2024-01-27T00:57:36;99259.50;;;-5.76;99.11
62655;BME280;48717;55.556;37.816;2024-01-27T01:00:07;99261.38;;;-5.73;98.73
62655;BME280;48717;55.556;37.816;2024-01-27T01:02:35;99254.88;;;-5.83;98.89
62655;BME280;48717;55.556;37.816;2024-01-27T01:05:03;99265.47;;;-5.77;99.44
62655;BME280;48717;55.556;37.816;2024-01-27T01:07:31;99271.72;;;-5.71;99.44
62655;BME280;48717;55.556;37.816;2024-01-27T01:09:59;99260.31;;;-5.77;98.88
62655;BME280;48717;55.556;37.816;2024-01-27T01:12:26;99264.31;;;-5.82;98.97
62655;BME280;48717;55.556;37.816;2024-01-27T01:14:54;99272.84;;;-5.83;98.67
62655;BME280;48717;55.556;37.816;2024-01-27T01:17:21;99272.84;;;-5.83;98.96
62655;BME280;48717;55.556;37.816;2024-01-27T01:19:49;99268.25;;;-5.88;98.68
62655;BME280;48717;55.556;37.816;2024-01-27T01:22:17;99270.00;;;-5.87;98.82
62655;BME280;48717;55.556;37.816;2024-01-27T01:24:44;99256.91;;;-5.92;98.52
62655;BME280;48717;55.556;37.816;2024-01-27T01:27:11;99266.19;;;-5.94;98.82
62655;BME280;48717;55.556;37.816;2024-01-27T01:29:38;99263.63;;;-5.94;99.07
62655;BME280;48717;55.556;37.816;2024-01-27T01:32:06;99271.16;;;-5.97;98.55
62655;BME280;48717;55.556;37.816;2024-01-27T01:34:33;99275.34;;;-5.99;99.36
62655;BME280;48717;55.556;37.816;2024-01-27T01:37:01;99262.25;;;-6.04;99.74
62655;BME280;48717;55.556;37.816;2024-01-27T01:39:30;99265.41;;;-5.93;99.33
62655;BME280;48717;55.556;37.816;2024-01-27T01:41:57;99263.16;;;-6.04;98.81
62655;BME280;48717;55.556;37.816;2024-01-27T01:44:30;99265.25;;;-5.96;98.74
62655;BME280;48717;55.556;37.816;2024-01-27T01:46:58;99264.72;;;-6.06;99.15
62655;BME280;48717;55.556;37.816;2024-01-27T01:49:26;99276.38;;;-5.96;99.16
62655;BME280;48717;55.556;37.816;2024-01-27T01:51:54;99273.72;;;-5.97;99.13
62655;BME280;48717;55.556;37.816;2024-01-27T01:54:21;99272.59;;;-6.03;98.48
62655;BME280;48717;55.556;37.816;2024-01-27T01:56:50;99268.09;;;-6.07;98.90
62655;BME280;48717;55.556;37.816;2024-01-27T01:59:17;99261.03;;;-6.11;98.75
62655;BME280;48717;55.556;37.816;2024-01-27T02:01:44;99269.81;;;-6.07;98.44
62655;BME280;48717;55.556;37.816;2024-01-27T02:04:12;99279.38;;;-6.05;98.70
62655;BME280;48717;55.556;37.816;2024-01-27T02:06:40;99267.25;;;-6.07;98.69
62655;BME280;48717;55.556;37.816;2024-01-27T02:09:08;99272.44;;;-6.06;98.59
62655;BME280;48717;55.556;37.816;2024-01-27T02:11:37;99283.19;;;-6.13;98.89
62655;BME280;48717;55.556;37.816;2024-01-27T02:14:04;99274.47;;;-6.15;98.96
62655;BME280;48717;55.556;37.816;2024-01-27T02:16:31;99278.56;;;-6.19;98.56
62655;BME280;48717;55.556;37.816;2024-01-27T02:18:58;99284.59;;;-6.18;99.05
62655;BME280;48717;55.556;37.816;2024-01-27T02:21:26;99281.22;;;-6.17;99.38
62655;BME280;48717;55.556;37.816;2024-01-27T02:23:53;99278.03;;;-6.28;98.99
62655;BME280;48717;55.556;37.816;2024-01-27T02:26:21;99288.75;;;-6.20;99.26
62655;BME280;48717;55.556;37.816;2024-01-27T02:28:48;99264.59;;;-6.39;99.01
62655;BME280;48717;55.556;37.816;2024-01-27T02:31:15;99288.84;;;-6.19;99.01
62655;BME280;48717;55.556;37.816;2024-01-27T02:33:42;99278.22;;;-6.25;99.47
62655;BME280;48717;55.556;37.816;2024-01-27T02:36:10;99294.69;;;-6.21;99.54
62655;BME280;48717;55.556;37.816;2024-01-27T02:38:37;99284.84;;;-6.29;99.34
62655;BME280;48717;55.556;37.816;2024-01-27T02:41:04;99291.13;;;-6.23;99.00
62655;BME280;48717;55.556;37.816;2024-01-27T02:43:33;99276.81;;;-6.35;98.81
62655;BME280;48717;55.556;37.816;2024-01-27T02:46:00;99300.16;;;-6.30;98.61
62655;BME280;48717;55.556;37.816;2024-01-27T02:48:27;99303.91;;;-6.25;99.03
62655;BME280;48717;55.556;37.816;2024-01-27T02:50:55;99301.94;;;-6.29;99.36
62655;BME280;48717;55.556;37.816;2024-01-27T02:53:22;99299.28;;;-6.31;99.35
62655;BME280;48717;55.556;37.816;2024-01-27T02:55:49;99299.47;;;-6.27;99.26
62655;BME280;48717;55.556;37.816;2024-01-27T02:58:17;99296.81;;;-6.29;98.76
62655;BME280;48717;55.556;37.816;2024-01-27T03:00:44;99306.19;;;-6.30;98.80
62655;BME280;48717;55.556;37.816;2024-01-27T03:03:12;99305.56;;;-6.25;99.16
62655;BME280;48717;55.556;37.816;2024-01-27T03:05:39;99315.03;;;-6.24;98.65
62655;BME280;48717;55.556;37.816;2024-01-27T03:08:07;99293.44;;;-6.43;98.54
62655;BME280;48717;55.556;37.816;2024-01-27T03:10:34;99309.97;;;-6.38;98.03
62655;BME280;48717;55.556;37.816;2024-01-27T03:13:02;99324.75;;;-6.34;98.67
62655;BME280;48717;55.556;37.816;2024-01-27T03:15:29;99316.44;;;-6.45;98.95
62655;BME280;48717;55.556;37.816;2024-01-27T03:17:56;99329.88;;;-6.34;98.94
62655;BME280;48717;55.556;37.816;2024-01-27T03:20:24;99309.63;;;-6.44;98.71
62655;BME280;48717;55.556;37.816;2024-01-27T03:22:51;99317.66;;;-6.38;98.86
62655;BME280;48717;55.556;37.816;2024-01-27T03:25:19;99329.53;;;-6.40;98.19
62655;BME280;48717;55.556;37.816;2024-01-27T03:27:46;99332.91;;;-6.41;98.33
62655;BME280;48717;55.556;37.816;2024-01-27T03:30:13;99323.16;;;-6.47;98.90
62655;BME280;48717;55.556;37.816;2024-01-27T03:32:40;99318.34;;;-6.56;98.15
62655;BME280;48717;55.556;37.816;2024-01-27T03:35:08;99312.16;;;-6.59;98.57
62655;BME280;48717;55.556;37.816;2024-01-27T03:37:35;99322.53;;;-6.58;98.60
62655;BME280;48717;55.556;37.816;2024-01-27T03:40:02;99339.69;;;-6.57;99.21
62655;BME280;48717;55.556;37.816;2024-01-27T03:42:30;99334.97;;;-6.64;98.85
62655;BME280;48717;55.556;37.816;2024-01-27T03:44:58;99340.28;;;-6.61;98.88
62655;BME280;48717;55.556;37.816;2024-01-27T03:47:25;99337.38;;;-6.67;99.25
62655;BME280;48717;55.556;37.816;2024-01-27T03:49:52;99353.22;;;-6.59;98.82
62655;BME280;48717;55.556;37.816;2024-01-27T03:52:20;99334.19;;;-6.63;99.16
62655;BME280;48717;55.556;37.816;2024-01-27T03:54:47;99356.94;;;-6.54;98.73
62655;BME280;48717;55.556;37.816;2024-01-27T03:57:14;99357.44;;;-6.60;98.16
62655;BME280;48717;55.556;37.816;2024-01-27T03:59:42;99361.00;;;-6.58;98.74
62655;BME280;48717;55.556;37.816;2024-01-27T04:02:09;99355.13;;;-6.70;98.36
62655;BME280;48717;55.556;37.816;2024-01-27T04:04:36;99362.72;;;-6.72;98.54
62655;BME280;48717;55.556;37.816;2024-01-27T04:07:03;99363.63;;;-6.71;98.91
62655;BME280;48717;55.556;37.816;2024-01-27T04:09:32;99357.03;;;-6.81;98.76
62655;BME280;48717;55.556;37.816;2024-01-27T04:11:59;99379.31;;;-6.80;98.63
62655;BME280;48717;55.556;37.816;2024-01-27T04:14:27;99381.50;;;-6.86;98.13
62655;BME280;48717;55.556;37.816;2024-01-27T04:16:54;99377.00;;;-6.90;98.97
62655;BME280;48717;55.556;37.816;2024-01-27T04:19:21;99376.09;;;-6.91;99.29
62655;BME280;48717;55.556;37.816;2024-01-27T04:21:49;99390.88;;;-6.87;98.77
62655;BME280;48717;55.556;37.816;2024-01-27T04:24:16;99388.03;;;-6.91;98.81
62655;BME280;48717;55.556;37.816;2024-01-27T04:26:43;99387.94;;;-6.93;99.32
62655;BME280;48717;55.556;37.816;2024-01-27T04:29:10;99394.84;;;-6.92;98.84
62655;BME280;48717;55.556;37.816;2024-01-27T04:31:42;99392.66;;;-6.99;98.10
62655;BME280;48717;55.556;37.816;2024-01-27T04:34:09;99388.25;;;-7.02;99.06
62655;BME280;48717;55.556;37.816;2024-01-27T04:36:37;99402.91;;;-6.99;99.15
62655;BME280;48717;55.556;37.816;2024-01-27T04:39:05;99401.06;;;-7.02;98.77
62655;BME280;48717;55.556;37.816;2024-01-27T04:41:32;99409.66;;;-7.01;99.50
62655;BME280;48717;55.556;37.816;2024-01-27T04:43:59;99392.78;;;-7.11;99.45
62655;BME280;48717;55.556;37.816;2024-01-27T04:46:26;99415.56;;;-7.02;99.00
62655;BME280;48717;55.556;37.816;2024-01-27T04:48:54;99408.84;;;-7.00;99.66
62655;BME280;48717;55.556;37.816;2024-01-27T04:51:22;99417.59;;;-6.97;99.84
62655;BME280;48717;55.556;37.816;2024-01-27T04:53:50;99414.19;;;-6.97;99.01
62655;BME280;48717;55.556;37.816;2024-01-27T04:56:17;99414.28;;;-6.96;99.25
62655;BME280;48717;55.556;37.816;2024-01-27T04:58:44;99415.75;;;-6.99;99.52
62655;BME280;48717;55.556;37.816;2024-01-27T05:01:12;99395.94;;;-7.15;98.64
62655;BME280;48717;55.556;37.816;2024-01-27T05:03:39;99425.03;;;-7.01;98.59
62655;BME280;48717;55.556;37.816;2024-01-27T05:06:09;99430.53;;;-6.95;98.99
62655;BME280;48717;55.556;37.816;2024-01-27T05:08:37;99428.97;;;-6.93;98.88
62655;BME280;48717;55.556;37.816;2024-01-27T05:11:04;99427.00;;;-6.97;98.43
62655;BME280;48717;55.556;37.816;2024-01-27T05:13:32;99432.50;;;-6.91;98.94
62655;BME280;48717;55.556;37.816;2024-01-27T05:15:59;99436.53;;;-6.95;98.67
62655;BME280;48717;55.556;37.816;2024-01-27T05:18:26;99441.19;;;-6.89;98.63
62655;BME280;48717;55.556;37.816;2024-01-27T05:20:54;99425.41;;;-6.95;98.70
62655;BME280;48717;55.556;37.816;2024-01-27T05:23:22;99441.19;;;-6.89;98.43
62655;BME280;48717;55.556;37.816;2024-01-27T05:25:50;99445.81;;;-6.83;98.04
62655;BME280;48717;55.556;37.816;2024-01-27T05:28:17;99442.34;;;-6.84;98.05
62655;BME280;48717;55.556;37.816;2024-01-27T05:30:45;99445.13;;;-6.80;98.62
62655;BME280;48717;55.556;37.816;2024-01-27T05:33:12;99433.59;;;-6.87;98.16
62655;BME280;48717;55.556;37.816;2024-01-27T05:35:39;99448.03;;;-6.74;97.96
62655;BME280;48717;55.556;37.816;2024-01-27T05:38:08;99454.34;;;-6.69;98.32
62655;BME280;48717;55.556;37.816;2024-01-27T05:40:36;99419.28;;;-6.84;98.06
62655;BME280;48717;55.556;37.816;2024-01-27T05:43:06;99442.31;;;-6.70;98.06
62655;BME280;48717;55.556;37.816;2024-01-27T05:45:33;99446.75;;;-6.68;96.75
62655;BME280;48717;55.556;37.816;2024-01-27T05:48:01;99442.69;;;-6.64;97.19
62655;BME280;48717;55.556;37.816;2024-01-27T05:50:30;99451.19;;;-6.65;97.21
62655;BME280;48717;55.556;37.816;2024-01-27T05:52:59;99461.34;;;-6.66;97.63
62655;BME280;48717;55.556;37.816;2024-01-27T05:55:26;99442.31;;;-6.70;97.46
62655;BME280;48717;55.556;37.816;2024-01-27T05:57:53;99452.19;;;-6.63;97.21
62655;BME280;48717;55.556;37.816;2024-01-27T06:00:23;99451.06;;;-6.66;96.79
62655;BME280;48717;55.556;37.816;2024-01-27T06:02:51;99458.28;;;-6.61;96.97
62655;BME280;48717;55.556;37.816;2024-01-27T06:05:18;99467.31;;;-6.52;96.83
62655;BME280;48717;55.556;37.816;2024-01-27T06:07:46;99449.97;;;-6.57;96.63
62655;BME280;48717;55.556;37.816;2024-01-27T06:10:15;99456.16;;;-6.53;96.97
62655;BME280;48717;55.556;37.816;2024-01-27T06:12:43;99472.31;;;-6.40;96.35
62655;BME280;48717;55.556;37.816;2024-01-27T06:15:12;99475.19;;;-6.36;95.93
62655;BME280;48717;55.556;37.816;2024-01-27T06:17:39;99464.38;;;-6.45;95.74
62655;BME280;48717;55.556;37.816;2024-01-27T06:20:07;99471.63;;;-6.38;95.76
62655;BME280;48717;55.556;37.816;2024-01-27T06:22:35;99478.81;;;-6.32;95.36
62655;BME280;48717;55.556;37.816;2024-01-27T06:25:03;99476.94;;;-6.35;94.89
62655;BME280;48717;55.556;37.816;2024-01-27T06:27:30;99491.44;;;-6.35;94.53
62655;BME280;48717;55.556;37.816;2024-01-27T06:29:58;99470.66;;;-6.40;94.84
62655;BME280;48717;55.556;37.816;2024-01-27T06:32:25;99495.38;;;-6.27;94.60
62655;BME280;48717;55.556;37.816;2024-01-27T06:34:52;99489.19;;;-6.31;94.29
62655;BME280;48717;55.556;37.816;2024-01-27T06:37:19;99492.34;;;-6.35;94.49
62655;BME280;48717;55.556;37.816;2024-01-27T06:39:50;99494.56;;;-6.26;94.48
62655;BME280;48717;55.556;37.816;2024-01-27T06:42:17;99481.78;;;-6.11;94.69
62655;BME280;48717;55.556;37.816;2024-01-27T06:44:44;99500.91;;;-5.91;93.72
62655;BME280;48717;55.556;37.816;2024-01-27T06:47:12;99501.75;;;-5.77;92.84
62655;BME280;48717;55.556;37.816;2024-01-27T06:49:39;99492.00;;;-5.67;92.07
62655;BME280;48717;55.556;37.816;2024-01-27T06:52:07;99500.44;;;-5.55;91.22
62655;BME280;48717;55.556;37.816;2024-01-27T06:54:34;99502.59;;;-5.47;90.06
62655;BME280;48717;55.556;37.816;2024-01-27T06:57:03;99499.72;;;-5.37;90.54
62655;BME280;48717;55.556;37.816;2024-01-27T06:59:31;99515.34;;;-5.34;89.56
62655;BME280;48717;55.556;37.816;2024-01-27T07:01:59;99528.97;;;-5.35;89.70
62655;BME280;48717;55.556;37.816;2024-01-27T07:04:27;99516.06;;;-5.37;90.17
62655;BME280;48717;55.556;37.816;2024-01-27T07:06:54;99516.91;;;-5.21;89.78
62655;BME280;48717;55.556;37.816;2024-01-27T07:09:22;99513.38;;;-5.08;89.28
62655;BME280;48717;55.556;37.816;2024-01-27T07:11:50;99517.59;;;-4.93;87.97
62655;BME280;48717;55.556;37.816;2024-01-27T07:14:19;99529.47;;;-4.80;87.38
62655;BME280;48717;55.556;37.816;2024-01-27T07:16:46;99515.44;;;-4.70;87.40
62655;BME280;48717;55.556;37.816;2024-01-27T07:19:14;99531.53;;;-4.58;85.68
62655;BME280;48717;55.556;37.816;2024-01-27T07:21:43;99532.22;;;-4.46;86.56
62655;BME280;48717;55.556;37.816;2024-01-27T07:24:10;99513.72;;;-4.38;84.34
62655;BME280;48717;55.556;37.816;2024-01-27T07:26:38;99516.28;;;-4.38;84.82
62655;BME280;48717;55.556;37.816;2024-01-27T07:29:06;99525.81;;;-4.21;84.73
62655;BME280;48717;55.556;37.816;2024-01-27T07:31:33;99527.91;;;-4.13;83.66
62655;BME280;48717;55.556;37.816;2024-01-27T07:34:01;99533.56;;;-4.04;82.89
62655;BME280;48717;55.556;37.816;2024-01-27T07:36:29;99540.47;;;-3.86;82.84
62655;BME280;48717;55.556;37.816;2024-01-27T07:39:00;99527.59;;;-3.70;81.73
62655;BME280;48717;55.556;37.816;2024-01-27T07:41:27;99514.78;;;-3.68;81.02
62655;BME280;48717;55.556;37.816;2024-01-27T07:44:15;99543.63;;;-3.59;80.13
62655;BME280;48717;55.556;37.816;2024-01-27T07:46:43;99544.16;;;-3.48;80.79
62655;BME280;48717;55.556;37.816;2024-01-27T07:49:10;99535.25;;;-3.36;80.23
62655;BME280;48717;55.556;37.816;2024-01-27T07:51:40;99544.56;;;-3.22;79.15
62655;BME280;48717;55.556;37.816;2024-01-27T07:54:07;99545.09;;;-3.11;78.31
62655;BME280;48717;55.556;37.816;2024-01-27T07:56:34;99548.16;;;-3.02;78.09
62655;BME280;48717;55.556;37.816;2024-01-27T07:59:02;99545.72;;;-3.17;76.98
62655;BME280;48717;55.556;37.816;2024-01-27T08:01:29;99540.69;;;-3.13;77.49
62655;BME280;48717;55.556;37.816;2024-01-27T08:03:57;99550.53;;;-3.23;76.99
62655;BME280;48717;55.556;37.816;2024-01-27T08:06:29;99554.38;;;-3.33;78.21
62655;BME280;48717;55.556;37.816;2024-01-27T08:08:59;99536.56;;;-3.45;78.78
62655;BME280;48717;55.556;37.816;2024-01-27T08:11:26;99555.44;;;-3.46;78.95
62655;BME280;48717;55.556;37.816;2024-01-27T08:13:55;99570.59;;;-3.69;78.73
62655;BME280;48717;55.556;37.816;2024-01-27T08:16:24;99578.00;;;-3.75;80.66
62655;BME280;48717;55.556;37.816;2024-01-27T08:18:51;99561.25;;;-3.83;79.85
62655;BME280;48717;55.556;37.816;2024-01-27T08:21:18;99574.19;;;-3.82;80.05
62655;BME280;48717;55.556;37.816;2024-01-27T08:23:46;99564.00;;;-3.97;79.66
62655;BME280;48717;55.556;37.816;2024-01-27T08:26:13;99581.19;;;-4.12;81.02
62655;BME280;48717;55.556;37.816;2024-01-27T08:28:40;99587.16;;;-4.13;81.80
62655;BME280;48717;55.556;37.816;2024-01-27T08:31:08;99579.88;;;-4.21;82.25
62655;BME280;48717;55.556;37.816;2024-01-27T08:33:35;99576.50;;;-4.20;81.79
62655;BME280;48717;55.556;37.816;2024-01-27T08:36:02;99592.56;;;-4.24;83.11
62655;BME280;48717;55.556;37.816;2024-01-27T08:38:30;99591.88;;;-4.21;83.08
62655;BME280;48717;55.556;37.816;2024-01-27T08:40:58;99598.25;;;-4.14;82.00
62655;BME280;48717;55.556;37.816;2024-01-27T08:43:25;99593.03;;;-4.16;81.85
62655;BME280;48717;55.556;37.816;2024-01-27T08:45:53;99590.69;;;-4.11;82.25
62655;BME280;48717;55.556;37.816;2024-01-27T08:48:22;99604.00;;;-4.03;82.21
62655;BME280;48717;55.556;37.816;2024-01-27T08:50:49;99600.69;;;-4.01;82.79
62655;BME280;48717;55.556;37.816;2024-01-27T08:53:16;99597.63;;;-3.94;82.95
62655;BME280;48717;55.556;37.816;2024-01-27T08:55:44;99605.84;;;-3.84;81.66
62655;BME280;48717;55.556;37.816;2024-01-27T08:58:11;99611.34;;;-3.78;81.17
62655;BME280;48717;55.556;37.816;2024-01-27T09:00:38;99596.84;;;-3.76;81.09
62655;BME280;48717;55.556;37.816;2024-01-27T09:03:06;99582.16;;;-3.94;80.84
62655;BME280;48717;55.556;37.816;2024-01-27T09:05:33;99605.34;;;-3.94;80.57
62655;BME280;48717;55.556;37.816;2024-01-27T09:08:01;99599.88;;;-4.00;81.24
62655;BME280;48717;55.556;37.816;2024-01-27T09:10:29;99598.13;;;-4.01;82.04
62655;BME280;48717;55.556;37.816;2024-01-27T09:12:56;99600.25;;;-4.09;81.10
62655;BME280;48717;55.556;37.816;2024-01-27T09:15:23;99585.53;;;-4.28;81.93
62655;BME280;48717;55.556;37.816;2024-01-27T09:17:51;99601.03;;;-4.26;83.54
62655;BME280;48717;55.556;37.816;2024-01-27T09:20:19;99610.47;;;-4.27;82.94
62655;BME280;48717;55.556;37.816;2024-01-27T09:22:46;99609.66;;;-4.26;84.11
62655;BME280;48717;55.556;37.816;2024-01-27T09:25:14;99603.97;;;-4.20;83.43
62655;BME280;48717;55.556;37.816;2024-01-27T09:27:42;99560.06;;;-4.38;83.42
62655;BME280;48717;55.556;37.816;2024-01-27T09:30:10;99618.22;;;-4.10;83.79
62655;BME280;48717;55.556;37.816;2024-01-27T09:32:37;99603.31;;;-4.16;83.98
62655;BME280;48717;55.556;37.816;2024-01-27T09:35:05;99616.09;;;-4.17;82.34
62655;BME280;48717;55.556;37.816;2024-01-27T09:37:32;99611.69;;;-4.20;83.44
62655;BME280;48717;55.556;37.816;2024-01-27T09:40:00;99612.72;;;-4.16;83.91
62655;BME280;48717;55.556;37.816;2024-01-27T09:42:32;99609.47;;;-4.29;82.41
62655;BME280;48717;55.556;37.816;2024-01-27T09:45:02;99617.38;;;-4.26;82.18
62655;BME280;48717;55.556;37.816;2024-01-27T09:47:31;99613.84;;;-4.28;83.19
62655;BME280;48717;55.556;37.816;2024-01-27T09:49:58;99610.81;;;-4.36;83.93
62655;BME280;48717;55.556;37.816;2024-01-27T09:52:25;99615.25;;;-4.33;84.78
62655;BME280;48717;55.556;37.816;2024-01-27T09:54:53;99619.44;;;-4.35;85.03
62655;BME280;48717;55.556;37.816;2024-01-27T09:57:20;99617.69;;;-4.36;85.34
62655;BME280;48717;55.556;37.816;2024-01-27T09:59:49;99606.75;;;-4.32;84.70
62655;BME280;48717;55.556;37.816;2024-01-27T10:02:18;99618.19;;;-4.27;84.25
62655;BME280;48717;55.556;37.816;2024-01-27T10:04:48;99607.78;;;-4.28;85.11
62655;BME280;48717;55.556;37.816;2024-01-27T10:07:15;99605.63;;;-4.21;85.33
62655;BME280;48717;55.556;37.816;2024-01-27T10:09:43;99610.97;;;-4.17;84.12
62655;BME280;48717;55.556;37.816;2024-01-27T10:12:12;99617.41;;;-4.09;84.44
62655;BME280;48717;55.556;37.816;2024-01-27T10:14:41;99621.25;;;-4.17;83.39
62655;BME280;48717;55.556;37.816;2024-01-27T10:17:10;99609.56;;;-4.27;83.82
62655;BME280;48717;55.556;37.816;2024-01-27T10:19:37;99628.16;;;-4.16;83.88
62655;BME280;48717;55.556;37.816;2024-01-27T10:22:10;99637.22;;;-4.08;84.08
62655;BME280;48717;55.556;37.816;2024-01-27T10:24:38;99628.34;;;-4.13;84.00
62655;BME280;48717;55.556;37.816;2024-01-27T10:27:06;99635.09;;;-4.15;83.38
62655;BME280;48717;55.556;37.816;2024-01-27T10:29:33;99640.25;;;-4.15;84.52
62655;BME280;48717;55.556;37.816;2024-01-27T10:32:08;99630.75;;;-4.16;84.55
62655;BME280;48717;55.556;37.816;2024-01-27T10:34:36;99632.56;;;-4.30;85.44
62655;BME280;48717;55.556;37.816;2024-01-27T10:37:03;99638.50;;;-4.32;85.31
62655;BME280;48717;55.556;37.816;2024-01-27T10:39:30;99639.69;;;-4.41;85.12
62655;BME280;48717;55.556;37.816;2024-01-27T10:42:02;99630.72;;;-4.48;85.35
62655;BME280;48717;55.556;37.816;2024-01-27T10:44:30;99653.09;;;-4.32;85.88
62655;BME280;48717;55.556;37.816;2024-01-27T10:47:01;99648.56;;;-4.36;85.44
62655;BME280;48717;55.556;37.816;2024-01-27T10:49:34;99661.25;;;-4.39;86.51
62655;BME280;48717;55.556;37.816;2024-01-27T10:52:08;99645.47;;;-4.46;86.22
62655;BME280;48717;55.556;37.816;2024-01-27T10:54:38;99657.44;;;-4.46;85.99
62655;BME280;48717;55.556;37.816;2024-01-27T10:57:07;99673.16;;;-4.41;85.71
62655;BME280;48717;55.556;37.816;2024-01-27T10:59:37;99675.09;;;-4.37;86.19
62655;BME280;48717;55.556;37.816;2024-01-27T11:02:11;99677.63;;;-4.22;85.94
62655;BME280;48717;55.556;37.816;2024-01-27T11:04:41;99675.16;;;-4.21;86.27
62655;BME280;48717;55.556;37.816;2024-01-27T11:07:09;99690.91;;;-4.31;84.49
62655;BME280;48717;55.556;37.816;2024-01-27T11:09:38;99693.91;;;-4.38;84.71
62655;BME280;48717;55.556;37.816;2024-01-27T11:12:07;99694.63;;;-4.41;86.28
62655;BME280;48717;55.556;37.816;2024-01-27T11:14:35;99697.09;;;-4.42;86.46
62655;BME280;48717;55.556;37.816;2024-01-27T11:17:06;99702.78;;;-4.33;86.19
62655;BME280;48717;55.556;37.816;2024-01-27T11:19:33;99701.38;;;-4.28;86.36
62655;BME280;48717;55.556;37.816;2024-01-27T11:22:05;99692.66;;;-4.30;86.17
62655;BME280;48717;55.556;37.816;2024-01-27T11:24:32;99705.09;;;-4.23;85.15
62655;BME280;48717;55.556;37.816;2024-01-27T11:27:04;99701.53;;;-4.25;85.45
62655;BME280;48717;55.556;37.816;2024-01-27T11:29:32;99711.28;;;-4.19;84.66
62655;BME280;48717;55.556;37.816;2024-01-27T11:32:02;99720.53;;;-4.23;85.78
62655;BME280;48717;55.556;37.816;2024-01-27T11:34:43;99717.44;;;-4.32;85.21
62655;BME280;48717;55.556;37.816;2024-01-27T11:37:13;99718.84;;;-4.37;86.01
62655;BME280;48717;55.556;37.816;2024-01-27T11:39:42;99718.41;;;-4.30;85.17
62655;BME280;48717;55.556;37.816;2024-01-27T11:42:13;99721.59;;;-4.34;85.81
62655;BME280;48717;55.556;37.816;2024-01-27T11:44:41;99730.84;;;-4.38;85.57
62655;BME280;48717;55.556;37.816;2024-01-27T11:47:19;99716.38;;;-4.51;84.84
62655;BME280;48717;55.556;37.816;2024-01-27T11:49:54;99735.47;;;-4.47;86.84
62655;BME280;48717;55.556;37.816;2024-01-27T11:52:24;99733.41;;;-4.53;85.33
62655;BME280;48717;55.556;37.816;2024-01-27T11:54:59;99738.19;;;-4.44;86.41
62655;BME280;48717;55.556;37.816;2024-01-27T11:57:29;99708.31;;;-4.57;86.51
62655;BME280;48717;55.556;37.816;2024-01-27T11:59:57;99725.78;;;-4.51;86.01
62655;BME280;48717;55.556;37.816;2024-01-27T12:02:25;99731.28;;;-4.60;86.51
62655;BME280;48717;55.556;37.816;2024-01-27T12:04:54;99729.41;;;-4.63;85.98
62655;BME280;48717;55.556;37.816;2024-01-27T12:07:21;99747.44;;;-4.48;86.08
62655;BME280;48717;55.556;37.816;2024-01-27T12:09:49;99737.75;;;-4.52;85.32
62655;BME280;48717;55.556;37.816;2024-01-27T12:12:18;99742.56;;;-4.58;85.55
62655;BME280;48717;55.556;37.816;2024-01-27T12:14:49;99757.38;;;-4.54;86.68
62655;BME280;48717;55.556;37.816;2024-01-27T12:17:18;99757.28;;;-4.55;86.32
62655;BME280;48717;55.556;37.816;2024-01-27T12:19:47;99752.66;;;-4.61;86.77
62655;BME280;48717;55.556;37.816;2024-01-27T12:22:26;99772.03;;;-4.53;86.65
62655;BME280;48717;55.556;37.816;2024-01-27T12:24:55;99744.00;;;-4.63;86.40
62655;BME280;48717;55.556;37.816;2024-01-27T12:27:23;99773.78;;;-4.52;86.59
62655;BME280;48717;55.556;37.816;2024-01-27T12:29:51;99773.44;;;-4.58;87.13
62655;BME280;48717;55.556;37.816;2024-01-27T12:32:19;99773.59;;;-4.55;87.00
62655;BME280;48717;55.556;37.816;2024-01-27T12:34:46;99761.63;;;-4.69;87.74
62655;BME280;48717;55.556;37.816;2024-01-27T12:37:15;99778.81;;;-4.68;87.74
62655;BME280;48717;55.556;37.816;2024-01-27T12:39:43;99793.59;;;-4.66;87.29
62655;BME280;48717;55.556;37.816;2024-01-27T12:42:13;99791.69;;;-4.68;87.91
62655;BME280;48717;55.556;37.816;2024-01-27T12:44:41;99798.63;;;-4.67;87.99
62655;BME280;48717;55.556;37.816;2024-01-27T12:47:12;99804.75;;;-4.65;88.40
62655;BME280;48717;55.556;37.816;2024-01-27T12:49:40;99795.06;;;-4.69;88.20
62655;BME280;48717;55.556;37.816;2024-01-27T12:52:11;99798.09;;;-4.77;88.21
62655;BME280;48717;55.556;37.816;2024-01-27T12:54:38;99800.03;;;-4.73;88.87